TimePST,TemperatureF,Dew PointF,Humidity,Sea Level PressureIn,VisibilityMPH,Wind Direction,Wind SpeedMPH,Gust SpeedMPH,PrecipitationIn,Events,Conditions,WindDirDegrees,DateUTC
12:52 AM,50.0,16.0,26,29.97,10.0,NNW,8.1,-,N/A,,Clear,330,2013-01-08 08:52:00
1:52 AM,57.9,17.1,20,29.97,10.0,NNW,13.8,-,N/A,,Clear,330,2013-01-08 09:52:00
2:52 AM,57.9,17.1,20,29.97,10.0,NNW,10.4,-,N/A,,Clear,340,2013-01-08 10:52:00
3:52 AM,53.1,17.1,24,29.96,10.0,NNW,8.1,-,N/A,,Clear,330,2013-01-08 11:52:00
4:52 AM,48.9,19.0,31,29.98,10.0,Calm,Calm,-,N/A,,Clear,0,2013-01-08 12:52:00
5:52 AM,57.9,21.9,25,30.00,10.0,NW,9.2,-,N/A,,Clear,320,2013-01-08 13:52:00
6:52 AM,64.0,26.1,24,30.01,10.0,NW,13.8,-,N/A,,Clear,320,2013-01-08 14:52:00
7:52 AM,63.0,26.1,25,30.05,10.0,NE,3.5,-,N/A,,Clear,50,2013-01-08 15:52:00
8:52 AM,71.1,30.0,22,30.07,10.0,North,5.8,-,N/A,,Clear,350,2013-01-08 16:52:00
9:52 AM,75.0,30.0,19,30.07,10.0,NNW,16.1,20.7,N/A,,Clear,330,2013-01-08 17:52:00
10:52 AM,77.0,28.9,17,30.04,10.0,NW,12.7,17.3,N/A,,Clear,320,2013-01-08 18:52:00
11:52 AM,77.0,28.0,17,30.01,10.0,West,4.6,-,N/A,,Clear,270,2013-01-08 19:52:00
12:52 PM,80.1,28.9,15,29.99,10.0,NNW,9.2,-,N/A,,Clear,330,2013-01-08 20:52:00
1:52 PM,80.1,28.9,15,29.98,10.0,Variable,4.6,-,N/A,,Clear,0,2013-01-08 21:52:00
2:52 PM,80.1,30.0,16,29.99,10.0,West,6.9,-,N/A,,Clear,280,2013-01-08 22:52:00
3:52 PM,80.1,30.0,16,29.99,10.0,NW,5.8,-,N/A,,Clear,310,2013-01-08 23:52:00
5:52 PM,62.1,35.1,37,30.02,10.0,SW,3.5,-,N/A,,Clear,220,2013-01-09 01:52:00
6:52 PM,55.9,35.1,45,30.04,10.0,East,5.8,-,N/A,,Clear,80,2013-01-09 02:52:00
7:52 PM,54.0,35.1,49,30.06,10.0,NNW,5.8,-,N/A,,Clear,330,2013-01-09 03:52:00
8:52 PM,52.0,36.0,54,30.06,10.0,West,4.6,-,N/A,,Clear,270,2013-01-09 04:52:00
10:52 PM,52.0,30.9,45,30.08,10.0,SSW,4.6,-,N/A,,Clear,200,2013-01-09 06:52:00
11:52 PM,46.9,30.9,54,30.08,10.0,SW,4.6,-,N/A,,Clear,230,2013-01-09 07:52:00